createdAt,value
2022-10-28T00:01:26.869Z,7.70
2022-10-28T00:03:56.790Z,7.00
2022-10-28T00:06:27.888Z,3.90
2022-10-28T00:08:56.329Z,6.17
2022-10-28T00:11:26.921Z,3.90
2022-10-28T00:13:55.525Z,5.57
2022-10-28T00:16:25.800Z,3.83
2022-10-28T00:18:54.805Z,6.80
2022-10-28T00:21:25.330Z,5.40
2022-10-28T00:23:55.499Z,6.77
2022-10-28T00:26:25.237Z,5.53
2022-10-28T00:28:55.186Z,4.83
2022-10-28T00:31:26.095Z,6.50
2022-10-28T00:33:55.227Z,5.03
2022-10-28T00:36:26.280Z,7.20
2022-10-28T00:38:56.921Z,7.50
2022-10-28T00:41:27.073Z,6.10
2022-10-28T00:43:56.930Z,3.63
2022-10-28T00:46:31.330Z,6.17
2022-10-28T00:49:07.180Z,3.93
2022-10-28T00:51:37.475Z,5.80
2022-10-28T00:54:08.366Z,5.60
2022-10-28T00:56:43.829Z,4.27
2022-10-28T00:59:19.992Z,5.93
2022-10-28T01:01:48.423Z,6.50
2022-10-28T01:04:17.554Z,8.03
2022-10-28T01:06:47.675Z,5.10
2022-10-28T01:09:17.241Z,4.63
2022-10-28T01:11:57.964Z,3.43
2022-10-28T01:14:37.713Z,11.47
2022-10-28T01:17:27.901Z,5.63
2022-10-28T01:20:36.140Z,3.47
2022-10-28T01:23:15.047Z,13.43
2022-10-28T01:26:24.148Z,5.30
2022-10-28T01:29:31.121Z,4.80
2022-10-28T01:32:11.072Z,7.23
2022-10-28T01:34:47.788Z,4.83
2022-10-28T01:37:20.822Z,3.83
2022-10-28T01:39:54.607Z,20.47
2022-10-28T01:42:28.856Z,3.87
2022-10-28T01:45:04.052Z,5.63
2022-10-28T01:47:37.475Z,3.83
2022-10-28T01:50:09.704Z,13.40
2022-10-28T01:52:41.608Z,5.97
2022-10-28T01:55:16.324Z,4.17
2022-10-28T01:57:45.866Z,6.70
2022-10-28T02:00:15.094Z,5.80
2022-10-28T02:02:46.022Z,4.80
2022-10-28T02:05:38.741Z,5.40
2022-10-28T02:08:22.276Z,5.50
2022-10-28T02:11:01.899Z,6.10
2022-10-28T02:13:39.080Z,6.37
2022-10-28T02:16:14.710Z,5.10
2022-10-28T02:18:49.392Z,7.20
2022-10-28T02:21:25.190Z,10.80
2022-10-28T02:23:57.865Z,9.00
2022-10-28T02:26:34.521Z,5.93
2022-10-28T02:29:08.596Z,4.03
2022-10-28T02:31:41.802Z,6.93
2022-10-28T02:34:15.375Z,5.20
2022-10-28T02:36:47.426Z,5.57
2022-10-28T02:39:17.609Z,6.03
2022-10-28T02:41:51.662Z,5.80
2022-10-28T02:44:24.917Z,7.70
2022-10-28T02:46:55.785Z,7.20
2022-10-28T02:49:27.496Z,6.20
2022-10-28T02:51:59.291Z,4.27
2022-10-28T02:54:32.157Z,5.00
2022-10-28T02:57:03.801Z,7.77
2022-10-28T02:59:32.159Z,7.57
2022-10-28T03:02:01.208Z,5.93
2022-10-28T03:04:33.989Z,8.33
2022-10-28T03:07:02.746Z,6.33
2022-10-28T03:09:31.665Z,5.90
2022-10-28T03:11:59.858Z,8.47
2022-10-28T03:14:28.015Z,7.10
2022-10-28T03:16:56.250Z,4.50
2022-10-28T03:19:24.964Z,5.70
2022-10-28T03:21:54.649Z,5.83
2022-10-28T03:24:22.792Z,4.60
2022-10-28T03:26:53.438Z,4.53
2022-10-28T03:29:25.358Z,5.37
2022-10-28T03:31:53.825Z,7.00
2022-10-28T03:34:23.157Z,7.83
2022-10-28T03:36:53.535Z,6.20
2022-10-28T03:39:23.417Z,9.77
2022-10-28T03:41:52.281Z,4.20
2022-10-28T03:44:21.261Z,4.30
2022-10-28T03:46:50.911Z,4.43
2022-10-28T03:49:22.051Z,7.60
2022-10-28T03:51:50.364Z,6.47
2022-10-28T03:54:20.603Z,5.03
2022-10-28T03:56:52.064Z,7.47
2022-10-28T03:59:20.632Z,7.00
2022-10-28T04:01:51.187Z,8.30
2022-10-28T04:04:19.900Z,4.47
2022-10-28T04:06:50.516Z,9.00
2022-10-28T04:09:22.095Z,5.17
2022-10-28T04:11:51.670Z,10.60
2022-10-28T04:14:19.879Z,8.30
2022-10-28T04:16:48.019Z,5.13
2022-10-28T04:19:16.223Z,5.27
2022-10-28T04:21:44.404Z,6.57
2022-10-28T04:24:12.746Z,6.13
2022-10-28T04:26:41.131Z,4.53
2022-10-28T04:29:10.873Z,5.93
2022-10-28T04:31:39.101Z,8.00
2022-10-28T04:34:07.413Z,6.80
2022-10-28T04:36:35.796Z,8.30
2022-10-28T04:39:04.370Z,10.10
2022-10-28T04:41:32.719Z,7.63
2022-10-28T04:44:00.917Z,5.93
2022-10-28T04:46:30.463Z,5.33
2022-10-28T04:48:58.622Z,11.73
2022-10-28T04:51:26.821Z,12.20
2022-10-28T04:53:55.706Z,5.20
2022-10-28T04:56:24.158Z,5.13
2022-10-28T04:58:52.402Z,10.37
2022-10-28T05:01:20.859Z,8.60
2022-10-28T05:03:50.445Z,6.17
2022-10-28T05:06:18.674Z,37.17
2022-10-28T05:08:46.935Z,47.13
2022-10-28T05:11:15.606Z,131.93
2022-10-28T05:13:44.235Z,96.23
2022-10-28T05:16:12.360Z,60.60
2022-10-28T05:18:40.646Z,40.03
2022-10-28T05:21:10.289Z,29.30
2022-10-28T05:23:38.470Z,18.33
2022-10-28T05:26:06.977Z,11.47
2022-10-28T05:28:35.266Z,11.57
2022-10-28T05:31:03.422Z,9.83
2022-10-28T05:33:31.747Z,9.57
2022-10-28T05:36:00.366Z,13.73
2022-10-28T05:38:30.163Z,5.40
2022-10-28T05:40:58.379Z,5.60
2022-10-28T05:43:26.588Z,8.60
2022-10-28T05:45:55.008Z,7.40
2022-10-28T05:48:23.238Z,13.70
2022-10-28T05:50:51.461Z,4.37
2022-10-28T05:53:19.722Z,6.90
2022-10-28T05:55:49.378Z,8.70
2022-10-28T05:58:19.321Z,8.43
2022-10-28T06:00:47.505Z,20.00
2022-10-28T06:03:15.978Z,9.70
2022-10-28T06:05:46.434Z,6.93
2022-10-28T06:08:15.118Z,12.80
2022-10-28T06:10:49.528Z,41.90
2022-10-28T06:13:19.692Z,45.73
2022-10-28T06:15:51.259Z,36.07
2022-10-28T06:18:19.549Z,19.33
2022-10-28T06:20:52.576Z,19.87
2022-10-28T06:23:21.319Z,16.37
2022-10-28T06:25:49.551Z,9.30
2022-10-28T06:28:19.130Z,9.70
2022-10-28T06:30:47.255Z,8.40
2022-10-28T06:33:15.735Z,8.33
2022-10-28T06:35:43.906Z,4.93
2022-10-28T06:38:12.090Z,5.10
2022-10-28T06:40:40.388Z,5.80
2022-10-28T06:43:11.074Z,6.80
2022-10-28T06:45:40.642Z,8.53
2022-10-28T06:48:11.783Z,8.07
2022-10-28T06:50:40.074Z,7.17
2022-10-28T06:53:08.280Z,6.70
2022-10-28T06:55:36.469Z,8.23
2022-10-28T06:58:05.568Z,6.03
2022-10-28T07:00:34.773Z,5.20
2022-10-28T07:03:04.481Z,10.10
2022-10-28T07:05:32.786Z,17.27
2022-10-28T07:08:00.925Z,41.07
2022-10-28T07:10:29.164Z,31.47
2022-10-28T07:12:57.720Z,32.07
2022-10-28T07:15:26.271Z,21.57
2022-10-28T07:17:55.089Z,15.67
2022-10-28T07:20:25.885Z,15.37
2022-10-28T07:22:57.994Z,11.87
2022-10-28T07:25:26.650Z,9.03
2022-10-28T07:27:55.183Z,9.40
2022-10-28T07:30:23.693Z,10.87
2022-10-28T07:32:52.296Z,5.93
2022-10-28T07:35:20.956Z,6.13
2022-10-28T07:37:53.305Z,4.13
2022-10-28T07:40:21.570Z,7.87
2022-10-28T07:42:50.150Z,7.23
2022-10-28T07:45:19.003Z,4.30
2022-10-28T07:47:47.976Z,9.00
2022-10-28T07:50:16.277Z,25.20
2022-10-28T07:52:46.234Z,50.00
2022-10-28T07:55:15.840Z,42.20
2022-10-28T07:57:44.126Z,30.20
2022-10-28T08:00:15.381Z,22.67
2022-10-28T08:02:43.879Z,20.33
2022-10-28T08:05:12.209Z,12.10
2022-10-28T08:07:40.369Z,10.70
2022-10-28T08:10:09.353Z,12.63
2022-10-28T08:12:39.043Z,9.67
2022-10-28T08:15:10.332Z,8.37
2022-10-28T08:17:38.603Z,17.17
2022-10-28T08:20:07.948Z,48.47
2022-10-28T08:22:36.070Z,41.23
2022-10-28T08:25:04.318Z,29.97
2022-10-28T08:27:32.532Z,20.70
2022-10-28T08:30:02.106Z,19.70
2022-10-28T08:32:31.764Z,17.43
2022-10-28T08:35:00.001Z,12.27
2022-10-28T08:37:28.159Z,10.97
2022-10-28T08:39:56.560Z,7.77
2022-10-28T08:42:37.160Z,10.13
2022-10-28T08:45:19.112Z,8.20
2022-10-28T08:47:59.318Z,9.27
2022-10-28T08:50:31.766Z,7.37
2022-10-28T08:53:06.617Z,6.23
2022-10-28T08:55:37.788Z,7.77
2022-10-28T08:58:11.877Z,5.87
2022-10-28T09:00:43.911Z,7.77
2022-10-28T09:03:22.306Z,6.60
2022-10-28T09:05:55.193Z,7.90
2022-10-28T09:08:27.633Z,5.03
2022-10-28T09:11:07.846Z,10.17
2022-10-28T09:13:48.420Z,29.27
2022-10-28T09:16:30.269Z,22.30
2022-10-28T09:19:03.280Z,18.17
2022-10-28T09:21:34.020Z,17.70
2022-10-28T09:24:08.835Z,16.33
2022-10-28T09:26:49.553Z,12.23
2022-10-28T09:29:31.014Z,12.03
2022-10-28T09:32:08.121Z,10.80
2022-10-28T09:34:40.774Z,8.53
2022-10-28T09:37:16.465Z,10.73
2022-10-28T09:39:48.001Z,8.87
2022-10-28T09:42:21.745Z,5.80
2022-10-28T09:44:54.214Z,6.30
2022-10-28T09:47:28.126Z,6.30
2022-10-28T09:50:02.360Z,5.13
2022-10-28T09:52:34.397Z,7.03
2022-10-28T09:55:09.756Z,3.67
2022-10-28T09:57:37.903Z,3.63
2022-10-28T10:00:07.592Z,4.80
2022-10-28T10:02:40.371Z,3.90
2022-10-28T10:05:16.924Z,6.27
2022-10-28T10:07:49.638Z,9.33
2022-10-28T10:10:23.159Z,7.30
2022-10-28T10:12:53.730Z,3.27
2022-10-28T10:15:33.134Z,4.93
2022-10-28T10:18:05.625Z,9.40
2022-10-28T10:20:48.433Z,9.77
2022-10-28T10:23:30.602Z,5.43
2022-10-28T10:26:01.507Z,7.30
2022-10-28T10:28:30.453Z,6.90
2022-10-28T10:31:00.928Z,11.50
2022-10-28T10:33:34.662Z,8.37
2022-10-28T10:36:05.821Z,6.43
2022-10-28T10:38:36.131Z,8.07
2022-10-28T10:41:04.623Z,10.03
2022-10-28T10:43:34.681Z,6.00
2022-10-28T10:46:05.642Z,4.07
2022-10-28T10:48:37.043Z,11.17
2022-10-28T10:51:12.738Z,10.47
2022-10-28T10:53:41.713Z,4.63
2022-10-28T10:56:13.221Z,6.77
2022-10-28T10:58:51.626Z,8.27
2022-10-28T11:01:22.920Z,6.13
2022-10-28T11:03:55.827Z,5.97
2022-10-28T11:06:27.663Z,5.70
2022-10-28T11:08:59.260Z,10.70
2022-10-28T11:11:35.041Z,4.93
2022-10-28T11:14:08.709Z,5.23
2022-10-28T11:16:50.042Z,3.83
2022-10-28T11:19:24.278Z,5.23
2022-10-28T11:22:08.702Z,3.50
2022-10-28T11:24:52.658Z,7.63
2022-10-28T11:27:32.966Z,12.63
2022-10-28T11:30:02.492Z,16.33
2022-10-28T11:32:54.491Z,12.83
2022-10-28T11:35:51.571Z,14.37
2022-10-28T11:38:32.987Z,9.33
2022-10-28T11:41:15.729Z,8.90
2022-10-28T11:43:54.870Z,9.17
2022-10-28T11:46:38.423Z,7.83
2022-10-28T11:49:36.293Z,6.40
2022-10-28T11:52:20.373Z,8.50
2022-10-28T11:55:02.379Z,6.10
2022-10-28T11:57:44.281Z,9.03
2022-10-28T12:00:56.993Z,5.80
2022-10-28T12:03:51.007Z,6.00
2022-10-28T12:06:28.995Z,7.70
2022-10-28T12:09:16.608Z,4.07
2022-10-28T12:11:57.098Z,8.97
2022-10-28T12:14:35.269Z,7.00
2022-10-28T12:17:13.058Z,5.00
2022-10-28T12:19:46.245Z,5.97
2022-10-28T12:22:19.470Z,5.23
2022-10-28T12:24:50.688Z,4.37
2022-10-28T12:27:23.606Z,3.73
2022-10-28T12:29:56.884Z,3.70
2022-10-28T12:32:29.386Z,4.60
2022-10-28T12:35:02.726Z,3.80
2022-10-28T12:37:37.841Z,3.80
2022-10-28T12:40:13.617Z,4.10
2022-10-28T12:42:46.899Z,3.27
2022-10-28T12:45:19.257Z,6.07
2022-10-28T12:47:52.625Z,6.00
2022-10-28T12:50:32.567Z,4.83
2022-10-28T12:53:19.784Z,5.50
2022-10-28T12:55:52.561Z,6.20
2022-10-28T12:58:28.356Z,5.50
2022-10-28T13:01:00.169Z,6.57
2022-10-28T13:03:28.650Z,4.70
2022-10-28T13:06:15.677Z,9.67
2022-10-28T13:09:22.745Z,6.37
2022-10-28T13:12:09.128Z,9.63
2022-10-28T13:15:15.538Z,9.83
2022-10-28T13:17:56.405Z,6.17
2022-10-28T13:20:39.566Z,8.50
2022-10-28T13:23:24.351Z,9.43
2022-10-28T13:26:08.747Z,7.20
2022-10-28T13:28:45.831Z,8.43
2022-10-28T13:31:15.459Z,9.23
2022-10-28T13:33:51.732Z,5.50
2022-10-28T13:36:26.510Z,6.30
2022-10-28T13:39:00.633Z,6.80
2022-10-28T13:41:33.224Z,4.93
2022-10-28T13:44:28.183Z,4.07
2022-10-28T13:47:21.650Z,8.80
2022-10-28T13:50:31.629Z,7.77
2022-10-28T13:53:42.274Z,6.17
2022-10-28T13:56:34.098Z,5.23
2022-10-28T13:59:05.641Z,6.63
2022-10-28T14:02:07.450Z,8.00
2022-10-28T14:04:54.837Z,16.00
2022-10-28T14:07:27.923Z,24.93
2022-10-28T14:10:17.600Z,21.57
2022-10-28T14:12:51.966Z,14.43
2022-10-28T14:15:24.338Z,11.70
2022-10-28T14:18:09.695Z,10.67
2022-10-28T14:20:58.762Z,12.83
2022-10-28T14:24:07.916Z,12.10
2022-10-28T14:27:09.814Z,7.00
2022-10-28T14:29:44.589Z,8.83
2022-10-28T14:32:41.493Z,10.77
2022-10-28T14:35:22.847Z,6.50
2022-10-28T14:38:23.733Z,11.10
2022-10-28T14:40:53.163Z,12.53
2022-10-28T14:43:40.420Z,7.87
2022-10-28T14:46:27.165Z,10.60
2022-10-28T14:48:57.092Z,9.20
2022-10-28T14:51:29.492Z,7.27
2022-10-28T14:54:01.627Z,5.63
2022-10-28T14:56:31.618Z,6.90
2022-10-28T14:59:02.164Z,9.80
2022-10-28T15:01:39.746Z,3.57
2022-10-28T15:04:14.155Z,24.93
2022-10-28T15:06:46.814Z,26.87
2022-10-28T15:09:19.745Z,22.63
2022-10-28T15:11:50.960Z,16.50
2022-10-28T15:14:28.279Z,13.53
2022-10-28T15:16:56.683Z,10.03
2022-10-28T15:19:26.723Z,9.10
2022-10-28T15:22:03.503Z,7.13
2022-10-28T15:24:32.032Z,11.73
2022-10-28T15:27:00.826Z,7.10
2022-10-28T15:29:29.164Z,10.17
2022-10-28T15:32:08.559Z,9.77
2022-10-28T15:34:36.969Z,8.00
2022-10-28T15:37:07.437Z,5.20
2022-10-28T15:39:36.004Z,10.83
2022-10-28T15:42:11.404Z,11.67
2022-10-28T15:44:40.781Z,6.67
2022-10-28T15:47:21.596Z,5.70
2022-10-28T15:50:01.443Z,9.40
2022-10-28T15:52:36.698Z,5.67
2022-10-28T15:55:35.948Z,5.30
2022-10-28T15:58:36.682Z,4.03
2022-10-28T16:01:09.185Z,10.40
2022-10-28T16:03:45.930Z,11.50
2022-10-28T16:06:26.876Z,7.43
2022-10-28T16:09:14.170Z,5.97
2022-10-28T16:11:46.049Z,6.03
2022-10-28T16:14:36.083Z,5.67
2022-10-28T16:17:17.653Z,3.87
2022-10-28T16:19:51.154Z,4.63
2022-10-28T16:22:20.336Z,5.10
2022-10-28T16:24:50.669Z,4.80
2022-10-28T16:27:21.585Z,5.13
2022-10-28T16:29:50.672Z,3.60
2022-10-28T16:32:21.542Z,4.70
2022-10-28T16:34:52.129Z,6.30
2022-10-28T16:37:23.986Z,5.27
2022-10-28T16:39:53.724Z,4.83
2022-10-28T16:42:23.336Z,3.43
2022-10-28T16:44:52.002Z,6.40
2022-10-28T16:47:22.177Z,4.23
2022-10-28T16:49:54.222Z,3.43
2022-10-28T16:52:28.087Z,9.73
2022-10-28T16:54:58.598Z,6.40
2022-10-28T16:57:29.479Z,4.33
2022-10-28T16:59:57.792Z,8.57
2022-10-28T17:02:28.956Z,7.00
2022-10-28T17:04:58.027Z,14.80
2022-10-28T17:07:26.784Z,14.00
2022-10-28T17:09:55.262Z,10.60
2022-10-28T17:12:26.369Z,13.20
2022-10-28T17:14:54.669Z,12.47
2022-10-28T17:17:23.042Z,10.90
2022-10-28T17:19:52.302Z,6.90
2022-10-28T17:22:20.469Z,7.60
2022-10-28T17:24:48.637Z,7.27
2022-10-28T17:27:16.966Z,7.77
2022-10-28T17:29:46.511Z,6.90
2022-10-28T17:32:14.857Z,8.87
2022-10-28T17:34:43.410Z,6.50
2022-10-28T17:37:11.958Z,7.50
2022-10-28T17:39:40.147Z,10.30
2022-10-28T17:42:08.484Z,6.43
2022-10-28T17:44:37.104Z,8.40
2022-10-28T17:47:07.099Z,11.80
2022-10-28T17:49:36.662Z,8.67
2022-10-28T17:52:05.007Z,6.90
2022-10-28T17:54:33.601Z,9.03
2022-10-28T17:57:01.921Z,9.20
2022-10-28T17:59:30.323Z,7.13
2022-10-28T18:01:58.613Z,14.53
2022-10-28T18:04:28.308Z,9.00
2022-10-28T18:06:58.199Z,8.50
2022-10-28T18:09:27.726Z,9.63
2022-10-28T18:11:55.964Z,7.80
2022-10-28T18:14:24.116Z,12.47
2022-10-28T18:16:52.273Z,10.67
2022-10-28T18:19:20.469Z,8.63
2022-10-28T18:21:50.315Z,7.60
2022-10-28T18:24:20.614Z,7.07
2022-10-28T18:26:56.534Z,10.50
2022-10-28T18:29:24.783Z,11.40
2022-10-28T18:31:53.010Z,8.80
2022-10-28T18:34:23.636Z,7.60
2022-10-28T18:36:53.399Z,10.33
2022-10-28T18:39:21.572Z,8.00
2022-10-28T18:41:51.343Z,6.57
2022-10-28T18:44:21.633Z,12.27
2022-10-28T18:46:51.224Z,10.10
2022-10-28T18:49:19.543Z,11.10
2022-10-28T18:51:47.717Z,9.63
2022-10-28T18:54:17.490Z,8.67
2022-10-28T18:56:47.965Z,10.77
2022-10-28T18:59:16.966Z,8.20
2022-10-28T19:01:48.644Z,10.87
2022-10-28T19:04:17.053Z,8.27
2022-10-28T19:06:46.668Z,10.03
2022-10-28T19:09:18.237Z,9.00
2022-10-28T19:11:46.630Z,11.03
2022-10-28T19:14:15.032Z,12.10
2022-10-28T19:16:43.187Z,12.80
2022-10-28T19:19:11.464Z,12.13
2022-10-28T19:21:39.739Z,8.20
2022-10-28T19:24:08.595Z,11.20
2022-10-28T19:26:39.621Z,8.63
2022-10-28T19:29:08.090Z,8.17
2022-10-28T19:31:38.726Z,8.50
2022-10-28T19:34:07.458Z,12.10
2022-10-28T19:36:35.665Z,13.27
2022-10-28T19:39:08.158Z,7.87
2022-10-28T19:41:41.040Z,13.07
2022-10-28T19:44:12.214Z,19.70
2022-10-28T19:46:40.796Z,10.47
2022-10-28T19:49:11.030Z,10.57
2022-10-28T19:51:45.492Z,18.93
2022-10-28T19:54:18.187Z,15.57
2022-10-28T19:56:51.754Z,13.97
2022-10-28T19:59:25.268Z,12.90
2022-10-28T20:01:54.643Z,12.23
2022-10-28T20:04:27.310Z,10.53
2022-10-28T20:06:57.639Z,10.37
2022-10-28T20:09:29.183Z,8.17
2022-10-28T20:12:03.113Z,9.80
2022-10-28T20:14:33.089Z,12.90
2022-10-28T20:17:06.590Z,11.37
2022-10-28T20:19:35.938Z,9.50
2022-10-28T20:22:06.790Z,10.80
2022-10-28T20:24:40.020Z,7.23
2022-10-28T20:27:10.102Z,9.83
2022-10-28T20:29:45.394Z,9.93
2022-10-28T20:32:13.929Z,13.27
2022-10-28T20:34:43.532Z,11.47
2022-10-28T20:37:11.775Z,11.83
2022-10-28T20:39:40.076Z,9.90
2022-10-28T20:42:10.005Z,7.87
2022-10-28T20:44:38.267Z,9.40
2022-10-28T20:47:06.549Z,10.27
2022-10-28T20:49:34.862Z,7.57
2022-10-28T20:52:06.232Z,17.20
2022-10-28T20:54:34.360Z,10.67
2022-10-28T20:57:02.546Z,8.13
2022-10-28T20:59:32.120Z,7.77
2022-10-28T21:02:00.458Z,12.87
2022-10-28T21:04:29.078Z,13.90
2022-10-28T21:06:57.547Z,10.13
2022-10-28T21:09:26.066Z,17.53
2022-10-28T21:11:54.394Z,10.00
2022-10-28T21:14:23.094Z,11.40
2022-10-28T21:16:52.916Z,7.87
2022-10-28T21:19:21.200Z,10.63
2022-10-28T21:21:49.475Z,8.83
2022-10-28T21:24:17.700Z,12.10
2022-10-28T21:26:48.416Z,22.03
2022-10-28T21:29:19.419Z,9.53
2022-10-28T21:31:47.544Z,11.60
2022-10-28T21:34:18.473Z,7.13
2022-10-28T21:36:47.016Z,8.87
2022-10-28T21:39:15.175Z,12.10
2022-10-28T21:41:43.501Z,8.00
2022-10-28T21:44:12.279Z,8.00
2022-10-28T21:46:40.502Z,13.37
2022-10-28T21:49:08.788Z,20.03
2022-10-28T21:51:38.453Z,20.13
2022-10-28T21:54:06.900Z,21.80
2022-10-28T21:56:35.182Z,29.73
2022-10-28T21:59:03.390Z,27.17
2022-10-28T22:01:32.941Z,33.53
2022-10-28T22:04:01.267Z,30.00
2022-10-28T22:06:29.489Z,33.13
2022-10-28T22:08:59.863Z,27.60
2022-10-28T22:11:28.254Z,33.80
2022-10-28T22:13:59.127Z,30.97
2022-10-28T22:16:28.814Z,30.70
2022-10-28T22:18:58.308Z,31.17
2022-10-28T22:21:28.182Z,25.03
2022-10-28T22:23:58.041Z,26.33
2022-10-28T22:26:28.851Z,24.17
2022-10-28T22:28:57.570Z,21.87
2022-10-28T22:31:27.843Z,18.90
2022-10-28T22:33:56.986Z,21.20
2022-10-28T22:36:26.673Z,18.53
2022-10-28T22:38:55.329Z,17.33
2022-10-28T22:41:26.149Z,17.30
2022-10-28T22:43:56.628Z,13.87
2022-10-28T22:46:26.506Z,16.10
2022-10-28T22:48:55.348Z,15.90
2022-10-28T22:51:24.388Z,13.40
2022-10-28T22:53:52.802Z,9.63
2022-10-28T22:56:25.221Z,17.97
2022-10-28T22:58:56.463Z,14.60
2022-10-28T23:01:25.678Z,13.80
2022-10-28T23:03:54.699Z,8.07
2022-10-28T23:06:24.671Z,10.90
2022-10-28T23:08:53.123Z,11.87
2022-10-28T23:11:22.547Z,12.80
2022-10-28T23:13:52.393Z,9.50
2022-10-28T23:16:22.794Z,14.00
2022-10-28T23:18:52.835Z,12.23
2022-10-28T23:21:22.872Z,8.67
2022-10-28T23:23:54.402Z,7.73
2022-10-28T23:26:23.304Z,16.40
2022-10-28T23:28:52.989Z,17.80
2022-10-28T23:31:23.243Z,9.77
2022-10-28T23:33:51.716Z,11.97
2022-10-28T23:36:19.921Z,13.53
2022-10-28T23:38:48.746Z,9.67
2022-10-28T23:41:19.361Z,10.10
2022-10-28T23:43:49.069Z,10.00
2022-10-28T23:46:17.648Z,8.93
2022-10-28T23:48:47.159Z,11.13
2022-10-28T23:51:15.392Z,10.67
2022-10-28T23:53:43.567Z,10.13
2022-10-28T23:56:11.847Z,8.83
2022-10-28T23:58:39.984Z,7.53
